createdAt,value
2019-03-21T00:00:03.227Z,4.82
2019-03-21T00:01:03.256Z,4.79
2019-03-21T00:02:03.235Z,4.81
2019-03-21T00:03:03.328Z,4.82
2019-03-21T00:04:03.233Z,4.81
2019-03-21T00:05:03.304Z,4.82
2019-03-21T00:06:03.298Z,4.8
2019-03-21T00:07:03.282Z,4.8
2019-03-21T00:08:03.334Z,4.77
2019-03-21T00:09:03.318Z,4.79
2019-03-21T00:10:03.357Z,4.79
2019-03-21T00:11:03.258Z,4.8
2019-03-21T00:12:03.224Z,4.8
2019-03-21T00:13:03.341Z,4.8
2019-03-21T00:14:07.605Z,4.79
2019-03-21T00:15:03.296Z,4.78
2019-03-21T00:16:03.244Z,4.78
2019-03-21T00:17:03.246Z,4.79
2019-03-21T00:18:03.225Z,4.77
2019-03-21T00:19:03.230Z,4.75
2019-03-21T00:20:03.217Z,4.76
2019-03-21T00:21:03.201Z,4.73
2019-03-21T00:22:03.198Z,4.74
2019-03-21T00:23:03.206Z,4.72
2019-03-21T00:24:03.265Z,4.72
2019-03-21T00:25:03.214Z,4.71
2019-03-21T00:26:03.179Z,4.71
2019-03-21T00:27:03.207Z,4.72
2019-03-21T00:28:03.186Z,4.72
2019-03-21T00:29:03.281Z,4.71
2019-03-21T00:30:03.182Z,4.76
2019-03-21T00:31:03.265Z,4.71
2019-03-21T00:32:03.428Z,4.71
2019-03-21T00:33:03.219Z,4.72
2019-03-21T00:34:03.296Z,4.74
2019-03-21T00:35:03.225Z,4.73
2019-03-21T00:36:03.235Z,4.73
2019-03-21T00:37:03.212Z,4.75
2019-03-21T00:38:03.229Z,4.73
2019-03-21T00:39:03.270Z,4.73
2019-03-21T00:40:03.214Z,4.73
2019-03-21T00:41:03.272Z,4.74
2019-03-21T00:42:03.184Z,4.72
2019-03-21T00:43:03.290Z,4.72
2019-03-21T00:44:03.166Z,4.73
2019-03-21T00:45:03.173Z,4.69
2019-03-21T00:46:03.198Z,4.7
2019-03-21T00:47:03.176Z,4.7
2019-03-21T00:48:03.195Z,4.69
2019-03-21T00:49:03.321Z,4.72
2019-03-21T00:50:03.152Z,4.72
2019-03-21T00:51:03.178Z,4.7
2019-03-21T00:52:03.155Z,4.69
2019-03-21T00:53:03.265Z,4.7
2019-03-21T00:54:03.263Z,4.69
2019-03-21T00:55:03.159Z,4.69
2019-03-21T00:56:03.227Z,4.67
2019-03-21T00:57:03.160Z,4.67
2019-03-21T00:58:03.159Z,4.67
2019-03-21T00:59:03.133Z,4.67
2019-03-21T01:00:03.167Z,4.68
2019-03-21T01:01:03.230Z,4.68
2019-03-21T01:02:03.114Z,4.68
2019-03-21T01:03:04.164Z,4.68
2019-03-21T01:04:03.169Z,4.67
2019-03-21T01:05:03.185Z,4.66
2019-03-21T01:06:03.191Z,4.66
2019-03-21T01:07:03.167Z,4.67
2019-03-21T01:08:03.127Z,4.67
2019-03-21T01:09:03.134Z,4.65
2019-03-21T01:10:03.153Z,4.67
2019-03-21T01:11:03.142Z,4.66
2019-03-21T01:12:03.169Z,4.62
2019-03-21T01:13:03.186Z,4.61
2019-03-21T01:14:03.120Z,4.64
2019-03-21T01:15:03.232Z,4.63
2019-03-21T01:16:03.118Z,4.62
2019-03-21T01:17:03.093Z,4.61
2019-03-21T01:18:03.132Z,4.62
2019-03-21T01:19:03.131Z,4.62
2019-03-21T01:20:03.417Z,4.62
2019-03-21T01:21:03.129Z,4.63
2019-03-21T01:22:03.151Z,4.62
2019-03-21T01:23:03.118Z,4.61
2019-03-21T01:24:03.120Z,4.61
2019-03-21T01:25:03.129Z,4.63
2019-03-21T01:26:03.093Z,4.63
2019-03-21T01:27:03.093Z,4.65
2019-03-21T01:28:03.106Z,4.63
2019-03-21T01:29:03.205Z,4.61
2019-03-21T01:30:03.101Z,4.62
2019-03-21T01:31:03.091Z,4.6
2019-03-21T01:32:03.097Z,4.6
2019-03-21T01:33:03.097Z,4.58
2019-03-21T01:34:03.297Z,4.57
2019-03-21T01:35:03.087Z,4.53
2019-03-21T01:36:03.287Z,4.53
2019-03-21T01:37:03.362Z,4.53
2019-03-21T01:38:03.088Z,4.53
2019-03-21T01:39:03.121Z,4.53
2019-03-21T01:40:03.073Z,4.51
2019-03-21T01:41:03.060Z,4.53
2019-03-21T01:42:03.118Z,4.51
2019-03-21T01:43:03.050Z,4.51
2019-03-21T01:44:03.062Z,4.49
2019-03-21T01:45:03.089Z,4.5
2019-03-21T01:46:03.147Z,4.47
2019-03-21T01:47:03.058Z,4.49
2019-03-21T01:48:03.037Z,4.46
2019-03-21T01:49:03.068Z,4.45
2019-03-21T01:50:03.053Z,4.43
2019-03-21T01:51:03.074Z,4.43
2019-03-21T01:52:03.066Z,4.43
2019-03-21T01:53:03.091Z,4.43
2019-03-21T01:54:03.045Z,4.42
2019-03-21T01:55:03.043Z,4.41
2019-03-21T01:56:03.103Z,4.41
2019-03-21T01:57:03.062Z,4.4
2019-03-21T01:58:03.137Z,4.43
2019-03-21T01:59:03.264Z,4.39
2019-03-21T02:00:03.117Z,4.41
2019-03-21T02:01:03.068Z,4.41
2019-03-21T02:02:03.068Z,4.4
2019-03-21T02:03:03.095Z,4.39
2019-03-21T02:04:03.031Z,4.39
2019-03-21T02:05:03.081Z,4.4
2019-03-21T02:06:03.034Z,4.4
2019-03-21T02:07:03.027Z,4.41
2019-03-21T02:08:03.047Z,4.42
2019-03-21T02:09:03.060Z,4.42
2019-03-21T02:10:03.061Z,4.4
2019-03-21T02:11:03.053Z,4.43
2019-03-21T02:12:03.095Z,4.45
2019-03-21T02:13:03.063Z,4.43
2019-03-21T02:14:03.019Z,4.45
2019-03-21T02:15:03.029Z,4.42
2019-03-21T02:16:03.106Z,4.43
2019-03-21T02:17:03.068Z,4.43
2019-03-21T02:18:03.029Z,4.45
2019-03-21T02:19:03.038Z,4.45
2019-03-21T02:20:03.247Z,4.46
2019-03-21T02:21:03.119Z,4.46
2019-03-21T02:22:03.024Z,4.47
2019-03-21T02:23:03.108Z,4.46
2019-03-21T02:24:03.009Z,4.47
2019-03-21T02:25:03.032Z,4.48
2019-03-21T02:26:03.049Z,4.47
2019-03-21T02:27:03.005Z,4.44
2019-03-21T02:28:03.063Z,4.46
2019-03-21T02:29:03.082Z,4.47
2019-03-21T02:30:03.095Z,4.47
2019-03-21T02:31:03.063Z,4.47
2019-03-21T02:32:03.038Z,4.47
2019-03-21T02:33:03.049Z,4.47
2019-03-21T02:34:03.053Z,4.47
2019-03-21T02:35:03.055Z,4.47
2019-03-21T02:36:03.095Z,4.47
2019-03-21T02:37:03.046Z,4.47
2019-03-21T02:38:03.020Z,4.49
2019-03-21T02:39:03.042Z,4.48
2019-03-21T02:40:03.170Z,4.5
2019-03-21T02:41:03.004Z,4.49
2019-03-21T02:42:03.031Z,4.5
2019-03-21T02:43:03.092Z,4.5
2019-03-21T02:44:03.043Z,4.5
2019-03-21T02:45:10.252Z,4.5
2019-03-21T02:46:03.110Z,4.5
2019-03-21T02:47:03.010Z,4.5
2019-03-21T02:48:03.084Z,4.5
2019-03-21T02:49:03.031Z,4.46
2019-03-21T02:50:03.016Z,4.46
2019-03-21T02:51:03.013Z,4.45
2019-03-21T02:52:03.015Z,4.44
2019-03-21T02:53:03.012Z,4.45
2019-03-21T02:54:03.095Z,4.47
2019-03-21T02:55:02.993Z,4.47
2019-03-21T02:56:02.990Z,4.48
2019-03-21T02:57:03.072Z,4.47
2019-03-21T02:58:03.033Z,4.47
2019-03-21T02:59:03.017Z,4.5
2019-03-21T03:00:03.083Z,4.5
2019-03-21T03:01:02.969Z,4.54
2019-03-21T03:02:02.956Z,4.52
2019-03-21T03:03:03.010Z,4.52
2019-03-21T03:04:02.992Z,4.51
2019-03-21T03:05:02.954Z,4.53
2019-03-21T03:06:02.962Z,4.51
2019-03-21T03:07:03.010Z,4.48
2019-03-21T03:08:02.997Z,4.48
2019-03-21T03:09:03.054Z,4.47
2019-03-21T03:10:02.990Z,4.5
2019-03-21T03:11:02.960Z,4.52
2019-03-21T03:12:02.944Z,4.52
2019-03-21T03:13:03.874Z,4.5
2019-03-21T03:14:05.138Z,4.5
2019-03-21T03:15:03.024Z,4.48
2019-03-21T03:16:03.018Z,4.55
2019-03-21T03:17:02.970Z,4.53
2019-03-21T03:18:02.965Z,4.52
2019-03-21T03:19:03.001Z,4.53
2019-03-21T03:20:03.001Z,4.53
2019-03-21T03:21:03.005Z,4.5
2019-03-21T03:22:03.036Z,4.51
2019-03-21T03:23:02.950Z,4.5
2019-03-21T03:24:02.954Z,4.5
2019-03-21T03:25:03.118Z,4.51
2019-03-21T03:26:03.027Z,4.54
2019-03-21T03:27:03.123Z,4.53
2019-03-21T03:28:03.875Z,4.53
2019-03-21T03:29:02.992Z,4.56
2019-03-21T03:30:03.129Z,4.55
2019-03-21T03:31:03.190Z,4.53
2019-03-21T03:32:03.032Z,4.54
2019-03-21T03:33:03.093Z,4.54
2019-03-21T03:34:03.004Z,4.55
2019-03-21T03:35:03.083Z,4.52
2019-03-21T03:36:03.039Z,4.54
2019-03-21T03:37:02.941Z,4.52
2019-03-21T03:38:02.939Z,4.54
2019-03-21T03:39:02.951Z,4.54
2019-03-21T03:40:02.958Z,4.55
2019-03-21T03:41:02.951Z,4.53
2019-03-21T03:42:09.064Z,4.54
2019-03-21T03:43:02.951Z,4.56
2019-03-21T03:44:02.946Z,4.54
2019-03-21T03:45:03.001Z,4.54
2019-03-21T03:46:03.106Z,4.52
2019-03-21T03:47:02.888Z,4.53
2019-03-21T03:48:02.935Z,4.52
2019-03-21T03:49:03.790Z,4.51
2019-03-21T03:50:02.969Z,4.47
2019-03-21T03:51:02.898Z,4.5
2019-03-21T03:52:02.977Z,4.46
2019-03-21T03:53:03.070Z,4.43
2019-03-21T03:54:02.988Z,4.4
2019-03-21T03:55:03.076Z,4.38
2019-03-21T03:56:02.900Z,4.37
2019-03-21T03:57:02.935Z,4.35
2019-03-21T03:58:02.912Z,4.37
2019-03-21T03:59:02.955Z,4.37
2019-03-21T04:00:02.953Z,4.36
2019-03-21T04:01:03.044Z,4.37
2019-03-21T04:02:02.860Z,4.35
2019-03-21T04:03:02.962Z,4.34
2019-03-21T04:04:02.896Z,4.32
2019-03-21T04:05:02.968Z,4.37
2019-03-21T04:06:02.923Z,4.38
2019-03-21T04:07:02.906Z,4.35
2019-03-21T04:08:02.938Z,4.32
2019-03-21T04:09:02.914Z,4.38
2019-03-21T04:10:02.842Z,4.37
2019-03-21T04:11:02.879Z,4.36
2019-03-21T04:12:02.875Z,4.37
2019-03-21T04:13:02.929Z,4.36
2019-03-21T04:14:02.877Z,4.35
2019-03-21T04:15:02.882Z,4.35
2019-03-21T04:16:02.864Z,4.37
2019-03-21T04:17:02.849Z,4.4
2019-03-21T04:18:02.879Z,4.38
2019-03-21T04:19:02.879Z,4.42
2019-03-21T04:20:02.856Z,4.4
2019-03-21T04:21:02.900Z,4.4
2019-03-21T04:22:02.846Z,4.39
2019-03-21T04:23:02.899Z,4.42
2019-03-21T04:24:02.851Z,4.42
2019-03-21T04:25:02.885Z,4.42
2019-03-21T04:26:02.906Z,4.41
2019-03-21T04:27:02.858Z,4.43
2019-03-21T04:28:02.922Z,4.41
2019-03-21T04:29:02.902Z,4.42
2019-03-21T04:30:02.838Z,4.41
2019-03-21T04:31:03.016Z,4.43
2019-03-21T04:32:02.864Z,4.44
2019-03-21T04:33:02.905Z,4.43
2019-03-21T04:34:02.819Z,4.42
2019-03-21T04:35:02.823Z,4.42
2019-03-21T04:36:02.835Z,4.45
2019-03-21T04:37:02.861Z,4.44
2019-03-21T04:38:02.794Z,4.43
2019-03-21T04:39:02.821Z,4.43
2019-03-21T04:40:02.850Z,4.44
2019-03-21T04:41:02.862Z,4.43
2019-03-21T04:42:02.869Z,4.44
2019-03-21T04:43:02.831Z,4.42
2019-03-21T04:44:03.705Z,4.42
2019-03-21T04:45:02.807Z,4.41
2019-03-21T04:46:04.231Z,4.41
2019-03-21T04:47:02.809Z,4.4
2019-03-21T04:48:02.838Z,4.38
2019-03-21T04:49:02.780Z,4.41
2019-03-21T04:50:02.773Z,4.4
2019-03-21T04:51:02.808Z,4.4
2019-03-21T04:52:03.112Z,4.4
2019-03-21T04:53:02.791Z,4.4
2019-03-21T04:54:02.803Z,4.39
2019-03-21T04:55:02.808Z,4.4
2019-03-21T04:56:02.767Z,4.39
2019-03-21T04:57:02.777Z,4.37
2019-03-21T04:58:02.772Z,4.37
2019-03-21T04:59:02.759Z,4.37
2019-03-21T05:00:04.321Z,4.33
2019-03-21T05:01:02.818Z,4.35
2019-03-21T05:02:02.834Z,4.32
2019-03-21T05:03:02.788Z,4.31
2019-03-21T05:04:02.764Z,4.31
2019-03-21T05:05:02.855Z,4.3
2019-03-21T05:06:02.834Z,4.3
2019-03-21T05:07:02.795Z,4.31
2019-03-21T05:08:02.801Z,4.29
2019-03-21T05:09:02.797Z,4.29
2019-03-21T05:10:02.806Z,4.29
2019-03-21T05:11:03.735Z,4.26
2019-03-21T05:12:02.763Z,4.26
2019-03-21T05:13:03.031Z,4.29
2019-03-21T05:14:02.780Z,4.29
2019-03-21T05:15:02.805Z,4.31
2019-03-21T05:16:15.355Z,4.3
2019-03-21T05:17:02.782Z,4.29
2019-03-21T05:18:02.759Z,4.31
2019-03-21T05:19:02.830Z,4.32
2019-03-21T05:20:02.839Z,4.31
2019-03-21T05:21:02.774Z,4.3
2019-03-21T05:22:02.783Z,4.31
2019-03-21T05:23:02.757Z,4.3
2019-03-21T05:24:02.738Z,4.3
2019-03-21T05:25:02.743Z,4.31
2019-03-21T05:26:04.497Z,4.31
2019-03-21T05:27:02.743Z,4.32
2019-03-21T05:28:02.743Z,4.32
2019-03-21T05:29:02.717Z,4.31
2019-03-21T05:30:03.633Z,4.31
2019-03-21T05:31:02.715Z,4.29
2019-03-21T05:32:04.128Z,4.32
2019-03-21T05:33:02.815Z,4.3
2019-03-21T05:34:02.990Z,4.33
2019-03-21T05:35:02.732Z,4.3
2019-03-21T05:36:02.722Z,4.3
2019-03-21T05:37:02.743Z,4.32
2019-03-21T05:38:02.707Z,4.32
2019-03-21T05:39:02.768Z,4.34
2019-03-21T05:40:03.239Z,4.32
2019-03-21T05:41:02.730Z,4.32
2019-03-21T05:42:02.719Z,4.34
2019-03-21T05:43:02.777Z,4.34
2019-03-21T05:44:02.713Z,4.33
2019-03-21T05:45:02.697Z,4.33
2019-03-21T05:46:02.708Z,4.33
2019-03-21T05:47:02.694Z,4.33
2019-03-21T05:48:02.730Z,4.33
2019-03-21T05:49:02.682Z,4.33
2019-03-21T05:50:02.711Z,4.33
2019-03-21T05:51:02.738Z,4.33
2019-03-21T05:52:02.707Z,4.32
2019-03-21T05:53:02.707Z,4.34
2019-03-21T05:54:02.759Z,4.32
2019-03-21T05:55:02.691Z,4.33
2019-03-21T05:56:02.902Z,4.33
2019-03-21T05:57:02.929Z,4.37
2019-03-21T05:58:02.735Z,4.34
2019-03-21T05:59:02.713Z,4.35
2019-03-21T06:00:02.679Z,4.35
2019-03-21T06:01:02.698Z,4.36
2019-03-21T06:02:02.802Z,4.35
2019-03-21T06:03:02.667Z,4.36
2019-03-21T06:04:03.053Z,4.37
2019-03-21T06:05:02.671Z,4.37
2019-03-21T06:06:02.724Z,4.36
2019-03-21T06:07:02.666Z,4.35
2019-03-21T06:08:02.700Z,4.34
2019-03-21T06:09:02.728Z,4.36
2019-03-21T06:10:02.661Z,4.38
2019-03-21T06:11:02.654Z,4.39
2019-03-21T06:12:02.702Z,4.38
2019-03-21T06:13:02.649Z,4.39
2019-03-21T06:14:02.713Z,4.39
2019-03-21T06:15:02.723Z,4.36
2019-03-21T06:16:02.689Z,4.39
2019-03-21T06:17:02.674Z,4.39
2019-03-21T06:18:02.763Z,4.42
2019-03-21T06:19:03.644Z,4.44
2019-03-21T06:20:04.726Z,4.44
2019-03-21T06:21:02.695Z,4.45
2019-03-21T06:22:02.667Z,4.43
2019-03-21T06:23:02.670Z,4.43
2019-03-21T06:24:02.696Z,4.43
2019-03-21T06:25:02.670Z,4.4
2019-03-21T06:26:02.645Z,4.4
2019-03-21T06:27:15.224Z,4.42
2019-03-21T06:28:02.716Z,4.44
2019-03-21T06:29:02.652Z,4.46
2019-03-21T06:30:02.716Z,4.48
2019-03-21T06:31:02.640Z,4.5
2019-03-21T06:32:02.648Z,4.5
2019-03-21T06:33:02.708Z,4.49
2019-03-21T06:34:02.757Z,4.49
2019-03-21T06:35:02.901Z,4.54
2019-03-21T06:36:02.642Z,4.5
2019-03-21T06:37:02.617Z,4.47
2019-03-21T06:38:02.706Z,4.47
2019-03-21T06:39:02.668Z,4.47
2019-03-21T06:40:03.809Z,4.49
2019-03-21T06:41:02.813Z,4.48
2019-03-21T06:42:08.951Z,4.46
2019-03-21T06:43:05.594Z,4.47
2019-03-21T06:44:02.615Z,4.49
2019-03-21T06:45:02.645Z,4.49
2019-03-21T06:46:02.612Z,4.48
2019-03-21T06:47:02.648Z,4.47
2019-03-21T06:48:02.685Z,4.48
2019-03-21T06:49:03.550Z,4.47
2019-03-21T06:50:02.656Z,4.47
2019-03-21T06:51:02.620Z,4.47
2019-03-21T06:52:02.642Z,4.46
2019-03-21T06:53:03.678Z,4.46
2019-03-21T06:54:02.634Z,4.5
2019-03-21T06:55:02.641Z,4.48
2019-03-21T06:56:02.663Z,4.48
2019-03-21T06:57:03.105Z,4.47
2019-03-21T06:58:02.676Z,4.5
2019-03-21T06:59:02.627Z,4.53
2019-03-21T07:00:02.628Z,4.53
2019-03-21T07:01:02.862Z,4.56
2019-03-21T07:02:02.643Z,4.54
2019-03-21T07:03:02.644Z,4.56
2019-03-21T07:04:07.920Z,4.55
2019-03-21T07:05:02.618Z,4.56
2019-03-21T07:06:02.575Z,4.57
2019-03-21T07:07:08.916Z,4.58
2019-03-21T07:08:02.662Z,4.56
2019-03-21T07:09:02.586Z,4.58
2019-03-21T07:10:02.672Z,4.61
2019-03-21T07:11:02.600Z,4.62
2019-03-21T07:12:02.716Z,4.6
2019-03-21T07:13:02.611Z,4.58
2019-03-21T07:14:02.635Z,4.61
2019-03-21T07:15:04.809Z,4.62
2019-03-21T07:16:02.647Z,4.6
2019-03-21T07:17:02.601Z,4.59
2019-03-21T07:18:02.579Z,4.61
2019-03-21T07:19:02.569Z,4.61
2019-03-21T07:20:02.632Z,4.63
2019-03-21T07:21:02.577Z,4.63
2019-03-21T07:22:02.625Z,4.64
2019-03-21T07:23:02.788Z,4.66
2019-03-21T07:24:02.613Z,4.66
2019-03-21T07:25:02.561Z,4.65
2019-03-21T07:26:02.560Z,4.68
2019-03-21T07:27:02.660Z,4.67
2019-03-21T07:28:02.567Z,4.65
2019-03-21T07:29:02.567Z,4.63
2019-03-21T07:30:02.626Z,4.64
2019-03-21T07:31:02.596Z,4.65
2019-03-21T07:32:02.585Z,4.64
2019-03-21T07:33:02.536Z,4.67
2019-03-21T07:34:02.520Z,4.64
2019-03-21T07:35:02.534Z,4.68
2019-03-21T07:36:02.552Z,4.67
2019-03-21T07:37:02.623Z,4.7
2019-03-21T07:38:02.537Z,4.68
2019-03-21T07:39:02.533Z,4.65
2019-03-21T07:40:02.564Z,4.67
2019-03-21T07:41:02.541Z,4.68
2019-03-21T07:42:02.581Z,4.7
2019-03-21T07:43:02.546Z,4.66
2019-03-21T07:44:02.558Z,4.69
2019-03-21T07:45:02.564Z,4.7
2019-03-21T07:46:02.520Z,4.72
2019-03-21T07:47:13.744Z,4.76
2019-03-21T07:48:05.662Z,4.74
2019-03-21T07:49:02.534Z,4.75
2019-03-21T07:50:02.529Z,4.77
2019-03-21T07:51:02.592Z,4.7
2019-03-21T07:52:02.614Z,4.71
2019-03-21T07:53:02.543Z,4.74
2019-03-21T07:54:02.580Z,4.74
2019-03-21T07:55:02.543Z,4.75
2019-03-21T07:56:02.524Z,4.69
2019-03-21T07:57:02.616Z,4.69
2019-03-21T07:58:02.499Z,4.73
2019-03-21T07:59:03.437Z,4.73
2019-03-21T08:00:02.511Z,4.74
2019-03-21T08:01:03.389Z,4.72
2019-03-21T08:02:02.493Z,4.74
2019-03-21T08:03:02.569Z,4.77
2019-03-21T08:04:03.831Z,4.82
2019-03-21T08:05:03.755Z,4.77
2019-03-21T08:06:02.881Z,4.78
2019-03-21T08:07:02.574Z,4.77
2019-03-21T08:08:02.545Z,4.74
2019-03-21T08:09:02.492Z,4.71
2019-03-21T08:10:02.485Z,4.73
2019-03-21T08:11:02.491Z,4.72
2019-03-21T08:12:02.496Z,4.76
2019-03-21T08:13:03.371Z,4.8
2019-03-21T08:14:03.568Z,4.8
2019-03-21T08:15:03.603Z,4.8
2019-03-21T08:16:02.478Z,4.8
2019-03-21T08:17:08.920Z,4.82
2019-03-21T08:18:02.491Z,4.83
2019-03-21T08:19:03.050Z,4.82
2019-03-21T08:20:02.481Z,4.79
2019-03-21T08:21:02.499Z,4.8
2019-03-21T08:22:02.513Z,4.8
2019-03-21T08:23:02.503Z,4.79
2019-03-21T08:24:02.637Z,4.79
2019-03-21T08:25:02.454Z,4.8
2019-03-21T08:26:02.525Z,4.81
2019-03-21T08:27:02.468Z,4.83
2019-03-21T08:28:02.567Z,4.77
2019-03-21T08:29:02.501Z,4.75
2019-03-21T08:30:02.455Z,4.74
2019-03-21T08:31:02.471Z,4.77
2019-03-21T08:32:03.355Z,4.78
2019-03-21T08:33:03.532Z,4.71
2019-03-21T08:34:02.561Z,4.76
2019-03-21T08:35:04.740Z,4.74
2019-03-21T08:36:02.472Z,4.73
2019-03-21T08:37:02.492Z,4.75
2019-03-21T08:38:02.493Z,4.81
2019-03-21T08:39:02.464Z,4.81
2019-03-21T08:40:02.445Z,4.8
2019-03-21T08:41:02.427Z,4.86
2019-03-21T08:42:02.447Z,4.85
2019-03-21T08:43:02.497Z,4.85
2019-03-21T08:44:02.536Z,4.91
2019-03-21T08:45:02.439Z,4.88
2019-03-21T08:46:02.432Z,4.87
2019-03-21T08:47:02.476Z,4.85
2019-03-21T08:48:02.437Z,4.93
2019-03-21T08:49:02.435Z,4.89
2019-03-21T08:50:02.467Z,4.93
2019-03-21T08:51:09.118Z,4.96
2019-03-21T08:52:02.479Z,5.02
2019-03-21T08:53:02.439Z,4.98
2019-03-21T08:54:02.462Z,5.01
2019-03-21T08:55:02.480Z,4.98
2019-03-21T08:56:02.451Z,5.02
2019-03-21T08:57:02.525Z,4.92
2019-03-21T08:58:02.415Z,4.94
2019-03-21T08:59:02.417Z,4.98
2019-03-21T09:00:02.485Z,4.89
2019-03-21T09:01:02.405Z,4.9
2019-03-21T09:02:02.454Z,4.78
2019-03-21T09:03:02.410Z,4.91
2019-03-21T09:04:02.403Z,4.91
2019-03-21T09:05:02.490Z,4.84
2019-03-21T09:06:02.397Z,4.82
2019-03-21T09:07:02.431Z,4.8
2019-03-21T09:08:02.425Z,4.81
2019-03-21T09:09:02.475Z,4.78
2019-03-21T09:10:02.501Z,4.78
2019-03-21T09:11:02.388Z,4.73
2019-03-21T09:12:02.440Z,4.76
2019-03-21T09:13:02.436Z,4.75
2019-03-21T09:14:02.447Z,4.8
2019-03-21T09:15:02.402Z,4.73
2019-03-21T09:16:02.405Z,4.75
2019-03-21T09:17:02.419Z,4.73
2019-03-21T09:18:02.423Z,4.8
2019-03-21T09:19:02.519Z,4.76
2019-03-21T09:20:02.442Z,4.78
2019-03-21T09:21:02.844Z,4.76
2019-03-21T09:22:02.450Z,4.79
2019-03-21T09:23:02.486Z,4.75
2019-03-21T09:24:02.383Z,4.77
2019-03-21T09:25:05.181Z,4.73
2019-03-21T09:26:02.452Z,4.79
2019-03-21T09:27:02.541Z,4.77
2019-03-21T09:28:03.417Z,4.78
2019-03-21T09:29:02.405Z,4.68
2019-03-21T09:30:02.418Z,4.69
2019-03-21T09:31:02.395Z,4.68
2019-03-21T09:32:02.437Z,4.76
2019-03-21T09:33:02.392Z,4.76
2019-03-21T09:34:02.383Z,4.77
2019-03-21T09:35:02.428Z,4.8
2019-03-21T09:36:02.665Z,4.69
2019-03-21T09:37:04.554Z,4.85
2019-03-21T09:38:02.783Z,4.85
2019-03-21T09:39:02.355Z,4.85
2019-03-21T09:40:02.495Z,4.84
2019-03-21T09:41:02.371Z,4.74
2019-03-21T09:42:02.546Z,4.81
2019-03-21T09:43:03.612Z,4.7
2019-03-21T09:44:02.371Z,4.79
2019-03-21T09:45:02.342Z,4.8
2019-03-21T09:46:03.313Z,4.59
2019-03-21T09:47:02.379Z,4.77
2019-03-21T09:48:02.387Z,4.62
2019-03-21T09:49:02.374Z,4.72
2019-03-21T09:50:02.353Z,4.74
2019-03-21T09:51:03.247Z,4.76
2019-03-21T09:52:02.329Z,4.65
2019-03-21T09:53:02.344Z,4.65
2019-03-21T09:54:10.244Z,4.7
2019-03-21T09:55:02.389Z,4.8
2019-03-21T09:56:02.373Z,4.81
2019-03-21T09:57:02.997Z,4.73
2019-03-21T09:58:02.705Z,4.6
2019-03-21T09:59:02.434Z,4.69
2019-03-21T10:00:02.417Z,4.75
2019-03-21T10:01:02.460Z,4.7
2019-03-21T10:02:02.346Z,4.72
2019-03-21T10:03:02.434Z,4.75
2019-03-21T10:04:02.373Z,4.76
2019-03-21T10:05:02.435Z,4.72
2019-03-21T10:06:02.343Z,4.66
2019-03-21T10:07:02.398Z,4.62
2019-03-21T10:08:02.354Z,4.7
2019-03-21T10:09:02.300Z,4.78
2019-03-21T10:10:02.332Z,4.71
2019-03-21T10:11:02.430Z,4.66
2019-03-21T10:12:02.342Z,4.67
2019-03-21T10:13:02.307Z,4.68
2019-03-21T10:14:02.324Z,4.64
2019-03-21T10:15:02.316Z,4.57
2019-03-21T10:16:02.311Z,4.59
2019-03-21T10:17:02.329Z,4.68
2019-03-21T10:18:02.332Z,4.74
2019-03-21T10:19:02.481Z,4.77
2019-03-21T10:20:02.311Z,4.71
2019-03-21T10:21:02.311Z,4.71
2019-03-21T10:22:02.325Z,4.8
2019-03-21T10:23:02.341Z,4.75
2019-03-21T10:24:02.366Z,4.72
2019-03-21T10:25:02.335Z,4.68
2019-03-21T10:26:02.296Z,4.77
2019-03-21T10:27:02.304Z,4.61
2019-03-21T10:28:02.367Z,4.57
2019-03-21T10:29:02.369Z,4.56
2019-03-21T10:30:02.299Z,4.67
2019-03-21T10:31:02.301Z,4.68
2019-03-21T10:32:14.930Z,4.71
2019-03-21T10:33:02.313Z,4.61
2019-03-21T10:34:02.326Z,4.68
2019-03-21T10:35:02.306Z,4.6
2019-03-21T10:36:02.290Z,4.63
2019-03-21T10:37:02.324Z,4.69
2019-03-21T10:38:02.288Z,4.77
2019-03-21T10:39:02.317Z,4.62
2019-03-21T10:40:02.339Z,4.73
2019-03-21T10:41:02.309Z,4.72
2019-03-21T10:42:02.299Z,4.64
2019-03-21T10:43:02.293Z,4.65
2019-03-21T10:44:02.257Z,4.62
2019-03-21T10:45:02.374Z,4.64
2019-03-21T10:46:02.329Z,4.71
2019-03-21T10:47:02.378Z,4.61
2019-03-21T10:48:02.259Z,4.68
2019-03-21T10:49:02.312Z,4.68
2019-03-21T10:50:02.310Z,4.72
2019-03-21T10:51:02.325Z,4.7
2019-03-21T10:52:02.287Z,4.78
2019-03-21T10:53:02.312Z,4.79
2019-03-21T10:54:02.273Z,4.84
2019-03-21T10:55:02.256Z,4.78
2019-03-21T10:56:02.312Z,4.83
2019-03-21T10:57:02.290Z,4.72
2019-03-21T10:58:02.249Z,4.64
2019-03-21T10:59:02.250Z,4.63
2019-03-21T11:00:02.755Z,4.65
2019-03-21T11:01:02.253Z,4.77
2019-03-21T11:01:15.937Z,4.72
2019-03-21T11:02:15.893Z,4.85
2019-03-21T11:03:15.938Z,4.85
2019-03-21T11:04:15.893Z,4.82
2019-03-21T11:05:15.888Z,4.71
2019-03-21T11:06:15.865Z,4.73
2019-03-21T11:07:15.872Z,4.76
2019-03-21T11:08:15.827Z,4.69
2019-03-21T11:09:15.851Z,4.85
2019-03-21T11:10:15.842Z,4.71
2019-03-21T11:11:15.850Z,4.7
2019-03-21T11:12:15.831Z,4.46
2019-03-21T11:13:15.870Z,4.5
2019-03-21T11:14:15.847Z,4.51
2019-03-21T11:15:15.875Z,4.47
2019-03-21T11:16:15.857Z,4.56
2019-03-21T11:17:15.891Z,4.49
2019-03-21T11:18:15.830Z,4.51
2019-03-21T11:19:15.942Z,4.52
2019-03-21T11:20:15.903Z,4.54
2019-03-21T11:21:15.822Z,4.62
2019-03-21T11:22:15.856Z,4.69
2019-03-21T11:23:16.010Z,4.68
2019-03-21T11:24:16.027Z,4.66
2019-03-21T11:25:15.878Z,4.54
2019-03-21T11:26:15.981Z,4.62
2019-03-21T11:27:15.932Z,4.68
2019-03-21T11:28:18.086Z,4.7
2019-03-21T11:29:15.876Z,4.63
2019-03-21T11:30:16.667Z,4.64
2019-03-21T11:31:15.830Z,4.7
2019-03-21T11:32:15.855Z,4.64
2019-03-21T11:33:15.879Z,4.57
2019-03-21T11:34:15.808Z,4.57
2019-03-21T11:35:15.829Z,4.58
2019-03-21T11:36:15.836Z,4.68
2019-03-21T11:37:15.811Z,4.64
2019-03-21T11:38:15.910Z,4.64
2019-03-21T11:39:15.798Z,4.62
2019-03-21T11:40:15.871Z,4.73
2019-03-21T11:41:15.852Z,4.66
2019-03-21T11:42:15.868Z,4.46
2019-03-21T11:43:15.932Z,4.58
2019-03-21T11:44:15.909Z,4.65
2019-03-21T11:45:15.902Z,4.73
2019-03-21T11:46:16.127Z,4.52
2019-03-21T11:47:15.842Z,4.55
2019-03-21T11:48:15.885Z,4.51
2019-03-21T11:49:15.864Z,4.53
2019-03-21T11:50:15.910Z,4.58
2019-03-21T11:51:15.869Z,4.59
2019-03-21T11:52:19.165Z,4.54
2019-03-21T11:53:15.918Z,4.52
2019-03-21T11:54:15.793Z,4.49
2019-03-21T11:55:15.829Z,4.57
2019-03-21T11:56:15.803Z,4.62
2019-03-21T11:57:15.802Z,4.6
2019-03-21T11:58:18.119Z,4.46
2019-03-21T11:59:15.809Z,4.42
2019-03-21T12:00:15.793Z,4.35
2019-03-21T12:01:16.976Z,4.34
2019-03-21T12:02:27.753Z,4.3
2019-03-21T12:03:15.894Z,4.3
2019-03-21T12:04:15.852Z,4.35
2019-03-21T12:05:15.815Z,4.42
2019-03-21T12:06:15.784Z,4.48
2019-03-21T12:07:15.769Z,4.45
2019-03-21T12:08:16.039Z,4.54
2019-03-21T12:09:15.809Z,4.52
2019-03-21T12:10:15.771Z,4.42
2019-03-21T12:11:15.783Z,4.46
2019-03-21T12:12:15.777Z,4.49
2019-03-21T12:13:15.758Z,4.38
2019-03-21T12:14:15.837Z,4.57
2019-03-21T12:15:15.851Z,4.53
2019-03-21T12:16:15.884Z,4.37
2019-03-21T12:17:15.755Z,4.37
2019-03-21T12:18:15.799Z,4.41
2019-03-21T12:19:15.792Z,4.46
2019-03-21T12:20:15.759Z,4.44
2019-03-21T12:21:15.740Z,4.47
2019-03-21T12:22:15.739Z,4.45
2019-03-21T12:23:15.760Z,4.31
2019-03-21T12:24:15.804Z,4.33
2019-03-21T12:25:15.724Z,4.33
2019-03-21T12:26:15.776Z,4.37
2019-03-21T12:27:15.766Z,4.42
2019-03-21T12:28:15.755Z,4.56
2019-03-21T12:29:15.733Z,4.53
2019-03-21T12:30:15.768Z,4.29
2019-03-21T12:31:15.761Z,4.55
2019-03-21T12:32:15.731Z,4.59
2019-03-21T12:33:15.784Z,4.63
2019-03-21T12:34:15.729Z,4.37
2019-03-21T12:35:15.765Z,4.43
2019-03-21T12:36:15.760Z,4.47
2019-03-21T12:37:17.203Z,4.48
2019-03-21T12:38:15.749Z,4.59
2019-03-21T12:39:15.751Z,4.74
2019-03-21T12:40:15.701Z,4.84
2019-03-21T12:41:15.774Z,4.62
2019-03-21T12:42:15.711Z,4.55
2019-03-21T12:43:15.747Z,4.55
2019-03-21T12:44:15.770Z,4.65
2019-03-21T12:45:15.772Z,4.46
2019-03-21T12:46:15.850Z,4.54
2019-03-21T12:47:15.753Z,4.6
2019-03-21T12:48:15.711Z,4.54
2019-03-21T12:49:15.746Z,4.53
2019-03-21T12:50:15.743Z,4.41
2019-03-21T12:51:15.733Z,4.54
2019-03-21T12:52:15.790Z,4.69
2019-03-21T12:53:15.749Z,4.65
2019-03-21T12:54:15.747Z,4.76
2019-03-21T12:55:15.689Z,4.82
2019-03-21T12:56:15.793Z,4.8
2019-03-21T12:57:15.722Z,4.53
2019-03-21T12:58:15.699Z,4.8
2019-03-21T12:59:15.706Z,4.76
2019-03-21T13:00:15.757Z,4.84
2019-03-21T13:01:15.701Z,4.7
2019-03-21T13:02:15.719Z,4.68
2019-03-21T13:03:15.767Z,4.74
2019-03-21T13:04:15.725Z,4.65
2019-03-21T13:05:15.696Z,4.61
2019-03-21T13:06:15.771Z,4.53
2019-03-21T13:07:19.442Z,4.53
2019-03-21T13:08:17.239Z,4.63
2019-03-21T13:09:15.727Z,4.67
2019-03-21T13:10:15.717Z,4.66
2019-03-21T13:11:15.790Z,4.7
2019-03-21T13:12:15.734Z,4.69
2019-03-21T13:13:15.834Z,4.63
2019-03-21T13:14:15.961Z,4.52
2019-03-21T13:15:15.747Z,4.69
2019-03-21T13:16:15.675Z,4.59
2019-03-21T13:17:15.826Z,4.47
2019-03-21T13:18:15.687Z,4.65
2019-03-21T13:19:15.716Z,4.6
2019-03-21T13:20:15.726Z,4.61